createdAt,value
2023-01-22T00:01:21.085Z,27.00
2023-01-22T00:03:49.291Z,23.02
2023-01-22T00:06:20.411Z,28.02
2023-01-22T00:08:48.634Z,28.17
2023-01-22T00:11:19.804Z,32.33
2023-01-22T00:13:47.505Z,22.95
2023-01-22T00:16:18.757Z,29.95
2023-01-22T00:18:47.948Z,27.30
2023-01-22T00:21:14.894Z,23.90
2023-01-22T00:26:26.955Z,20.40
2023-01-22T00:28:54.655Z,27.75
2023-01-22T00:31:21.816Z,25.70
2023-01-22T00:33:48.849Z,26.65
2023-01-22T00:36:22.512Z,18.67
2023-01-22T00:38:50.795Z,22.48
2023-01-22T00:41:20.357Z,26.08
2023-01-22T00:43:49.542Z,24.27
2023-01-22T00:46:18.017Z,24.15
2023-01-22T00:48:49.745Z,29.83
2023-01-22T00:51:17.493Z,31.60
2023-01-22T00:53:45.225Z,34.53
2023-01-22T00:56:14.170Z,25.42
2023-01-22T00:58:42.312Z,29.30
2023-01-22T01:01:09.437Z,25.40
2023-01-22T01:03:38.420Z,31.75
2023-01-22T01:06:07.671Z,33.13
2023-01-22T01:08:39.128Z,22.05
2023-01-22T01:11:14.299Z,23.40
2023-01-22T01:13:43.278Z,24.30
2023-01-22T01:16:24.154Z,25.00
2023-01-22T01:18:51.280Z,23.58
2023-01-22T01:21:21.534Z,30.90
2023-01-22T01:23:48.557Z,22.48
2023-01-22T01:26:16.984Z,27.20
2023-01-22T01:28:45.700Z,32.85
2023-01-22T01:31:16.383Z,29.05
2023-01-22T01:33:43.648Z,23.80
2023-01-22T01:36:24.228Z,24.02
2023-01-22T01:38:58.120Z,27.38
2023-01-22T01:41:26.998Z,32.03
2023-01-22T01:44:17.864Z,29.40
2023-01-22T01:46:52.401Z,34.53
2023-01-22T01:49:34.310Z,27.48
2023-01-22T01:52:05.600Z,31.20
2023-01-22T01:54:32.959Z,28.55
2023-01-22T01:57:19.555Z,30.80
2023-01-22T01:59:48.061Z,23.98
2023-01-22T02:02:16.636Z,24.15
2023-01-22T02:04:43.827Z,28.63
2023-01-22T02:07:10.767Z,30.77
2023-01-22T02:09:38.149Z,32.50
2023-01-22T02:12:06.488Z,28.05
2023-01-22T02:14:39.697Z,27.63
2023-01-22T02:17:18.761Z,27.30
2023-01-22T02:19:46.754Z,23.70
2023-01-22T02:22:18.360Z,29.80
2023-01-22T02:24:45.387Z,29.08
2023-01-22T02:27:12.591Z,25.85
2023-01-22T02:29:40.079Z,29.40
2023-01-22T02:32:07.437Z,19.92
2023-01-22T02:34:34.899Z,29.00
2023-01-22T02:37:01.958Z,25.50
2023-01-22T02:39:29.032Z,32.78
2023-01-22T02:41:56.839Z,28.05
2023-01-22T02:44:23.956Z,25.77
2023-01-22T02:46:51.706Z,23.33
2023-01-22T02:49:18.875Z,27.05
2023-01-22T02:51:45.782Z,28.95
2023-01-22T02:54:12.934Z,32.50
2023-01-22T02:56:39.914Z,22.40
2023-01-22T02:59:06.907Z,26.42
2023-01-22T03:01:34.159Z,30.20
2023-01-22T03:04:13.825Z,25.67
2023-01-22T03:06:44.918Z,20.50
2023-01-22T03:09:17.126Z,28.55
2023-01-22T03:11:46.942Z,24.30
2023-01-22T03:14:33.755Z,27.02
2023-01-22T03:17:20.102Z,23.60
2023-01-22T03:20:05.348Z,26.38
2023-01-22T03:22:32.496Z,24.50
2023-01-22T03:25:01.318Z,28.67
2023-01-22T03:27:30.649Z,23.85
2023-01-22T03:29:58.881Z,26.08
2023-01-22T03:32:25.964Z,19.77
2023-01-22T03:34:54.033Z,25.60
2023-01-22T03:37:21.741Z,23.58
2023-01-22T03:39:48.758Z,23.48
2023-01-22T03:42:15.669Z,24.40
2023-01-22T03:44:42.853Z,24.35
2023-01-22T03:47:09.763Z,23.27
2023-01-22T03:49:36.761Z,25.83
2023-01-22T03:52:03.798Z,24.08
2023-01-22T03:54:30.679Z,24.92
2023-01-22T03:56:57.629Z,27.83
2023-01-22T03:59:24.666Z,23.83
2023-01-22T04:01:52.763Z,22.00
2023-01-22T04:04:20.173Z,22.40
2023-01-22T04:06:47.098Z,22.13
2023-01-22T04:09:14.791Z,23.65
2023-01-22T04:11:41.804Z,21.75
2023-01-22T04:14:09.175Z,26.52
2023-01-22T04:16:36.510Z,29.25
2023-01-22T04:19:03.468Z,22.40
2023-01-22T04:21:30.807Z,23.13
2023-01-22T04:23:57.789Z,21.23
2023-01-22T04:26:24.735Z,30.73
2023-01-22T04:28:51.746Z,26.65
2023-01-22T04:31:19.044Z,21.63
2023-01-22T04:33:46.093Z,19.88
2023-01-22T04:36:13.025Z,27.65
2023-01-22T04:38:40.160Z,27.15
2023-01-22T04:41:07.369Z,26.75
2023-01-22T04:43:34.666Z,21.38
2023-01-22T04:46:05.085Z,27.80
2023-01-22T04:48:32.177Z,24.05
2023-01-22T04:50:59.055Z,23.10
2023-01-22T04:53:26.410Z,20.15
2023-01-22T04:55:53.336Z,27.27
2023-01-22T04:58:20.327Z,25.95
2023-01-22T05:00:47.488Z,21.80
2023-01-22T05:03:15.458Z,25.95
2023-01-22T05:05:42.493Z,21.27
2023-01-22T05:08:09.559Z,24.13
2023-01-22T05:10:36.802Z,20.73
2023-01-22T05:13:06.519Z,20.67
2023-01-22T05:15:34.420Z,26.27
2023-01-22T05:18:01.808Z,24.55
2023-01-22T05:20:28.764Z,22.10
2023-01-22T05:22:55.678Z,22.25
2023-01-22T05:25:23.083Z,17.90
2023-01-22T05:27:50.289Z,23.40
2023-01-22T05:30:18.030Z,29.73
2023-01-22T05:32:45.501Z,25.63
2023-01-22T05:35:12.574Z,29.75
2023-01-22T05:37:39.477Z,22.13
2023-01-22T05:40:07.862Z,23.42
2023-01-22T05:42:34.752Z,27.42
2023-01-22T05:45:01.818Z,25.70
2023-01-22T05:47:31.651Z,20.15
2023-01-22T05:49:58.494Z,24.00
2023-01-22T05:52:25.528Z,21.85
2023-01-22T05:54:52.414Z,23.48
2023-01-22T05:57:19.524Z,21.33
2023-01-22T05:59:46.400Z,23.25
2023-01-22T06:02:13.429Z,18.80
2023-01-22T06:04:40.660Z,24.48
2023-01-22T06:07:07.995Z,29.92
2023-01-22T06:09:34.815Z,23.17
2023-01-22T06:12:01.729Z,22.40
2023-01-22T06:14:28.718Z,25.73
2023-01-22T06:16:55.584Z,20.92
2023-01-22T06:19:25.439Z,25.65
2023-01-22T06:21:52.456Z,26.63
2023-01-22T06:24:19.394Z,25.65
2023-01-22T06:26:46.785Z,29.08
2023-01-22T06:29:14.010Z,22.98
2023-01-22T06:31:41.064Z,20.13
2023-01-22T06:34:09.727Z,25.60
2023-01-22T06:36:36.915Z,20.08
2023-01-22T06:39:04.199Z,21.15
2023-01-22T06:41:31.211Z,19.95
2023-01-22T06:43:58.423Z,17.23
2023-01-22T06:46:25.541Z,20.88
2023-01-22T06:48:52.720Z,24.52
2023-01-22T06:51:19.699Z,23.40
2023-01-22T06:53:46.842Z,21.58
2023-01-22T06:56:14.585Z,19.92
2023-01-22T06:58:41.507Z,19.17
2023-01-22T07:01:10.233Z,17.40
2023-01-22T07:03:37.349Z,19.77
2023-01-22T07:06:05.831Z,19.73
2023-01-22T07:08:33.846Z,17.02
2023-01-22T07:11:01.418Z,20.80
2023-01-22T07:13:28.501Z,24.17
2023-01-22T07:15:56.157Z,21.17
2023-01-22T07:18:24.448Z,21.40
2023-01-22T07:20:51.621Z,26.90
2023-01-22T07:23:19.120Z,21.40
2023-01-22T07:25:46.650Z,21.33
2023-01-22T07:28:15.174Z,21.98
2023-01-22T07:30:43.360Z,22.42
2023-01-22T07:33:12.182Z,23.48
2023-01-22T07:35:39.709Z,18.92
2023-01-22T07:38:07.487Z,22.02
2023-01-22T07:40:35.452Z,23.10
2023-01-22T07:43:07.212Z,20.73
2023-01-22T07:45:35.030Z,22.52
2023-01-22T07:48:02.999Z,22.20
2023-01-22T07:50:32.351Z,16.52
2023-01-22T07:53:02.599Z,18.88
2023-01-22T07:55:31.694Z,20.33
2023-01-22T07:58:05.405Z,21.02
2023-01-22T08:00:37.474Z,22.70
2023-01-22T08:03:05.549Z,20.70
2023-01-22T08:05:33.111Z,17.25
2023-01-22T08:08:00.062Z,19.05
2023-01-22T08:10:27.203Z,18.33
2023-01-22T08:12:54.226Z,16.95
2023-01-22T08:15:21.292Z,18.92
2023-01-22T08:17:52.122Z,20.92
2023-01-22T08:20:19.524Z,19.95
2023-01-22T08:22:47.145Z,19.67
2023-01-22T08:25:23.017Z,17.75
2023-01-22T08:27:49.978Z,16.05
2023-01-22T08:30:17.664Z,14.93
2023-01-22T08:32:45.956Z,18.52
2023-01-22T08:35:14.371Z,16.02
2023-01-22T08:37:44.796Z,18.00
2023-01-22T08:40:12.384Z,18.33
2023-01-22T08:42:40.083Z,19.75
2023-01-22T08:45:08.854Z,15.07
2023-01-22T08:47:35.786Z,15.32
2023-01-22T08:50:03.874Z,13.00
2023-01-22T08:52:31.381Z,21.80
2023-01-22T08:54:58.482Z,15.18
2023-01-22T08:57:25.460Z,16.05
2023-01-22T09:00:00.824Z,14.40
2023-01-22T09:02:28.748Z,18.45
2023-01-22T09:04:56.180Z,19.58
2023-01-22T09:07:23.177Z,17.65
2023-01-22T09:09:50.670Z,14.27
2023-01-22T09:12:18.033Z,20.40
2023-01-22T09:14:45.642Z,17.73
2023-01-22T09:17:12.689Z,15.88
2023-01-22T09:19:39.854Z,17.17
2023-01-22T09:22:07.950Z,15.80
2023-01-22T09:24:34.994Z,16.50
2023-01-22T09:27:02.308Z,16.70
2023-01-22T09:29:29.532Z,13.60
2023-01-22T09:31:57.103Z,15.15
2023-01-22T09:34:24.116Z,13.57
2023-01-22T09:36:51.498Z,14.52
2023-01-22T09:39:18.766Z,14.43
2023-01-22T09:41:51.512Z,13.20
2023-01-22T09:44:41.616Z,13.75
2023-01-22T09:47:19.758Z,13.25
2023-01-22T09:50:08.385Z,16.95
2023-01-22T09:52:38.869Z,16.70
2023-01-22T09:55:19.307Z,11.15
2023-01-22T09:57:52.702Z,13.95
2023-01-22T10:00:25.145Z,11.30
2023-01-22T10:03:04.167Z,12.02
2023-01-22T10:05:44.110Z,13.18
2023-01-22T10:08:35.276Z,15.40
2023-01-22T10:11:03.027Z,12.65
2023-01-22T10:13:36.023Z,10.80
2023-01-22T10:16:04.294Z,10.48
2023-01-22T10:18:40.615Z,14.80
2023-01-22T10:21:20.602Z,13.13
2023-01-22T10:23:50.174Z,11.05
2023-01-22T10:26:25.345Z,19.73
2023-01-22T10:28:58.624Z,9.70
2023-01-22T10:34:34.479Z,10.63
2023-01-22T10:37:18.214Z,11.23
2023-01-22T10:39:48.022Z,11.85
2023-01-22T10:42:26.317Z,11.13
2023-01-22T10:45:09.873Z,11.60
2023-01-22T10:47:37.129Z,10.60
2023-01-22T10:50:15.545Z,11.30
2023-01-22T10:52:57.316Z,11.68
2023-01-22T10:55:29.132Z,10.93
2023-01-22T10:58:08.137Z,12.45
2023-01-22T11:00:51.477Z,9.77
2023-01-22T11:03:36.830Z,13.02
2023-01-22T11:06:24.821Z,10.77
2023-01-22T11:09:03.275Z,12.43
2023-01-22T11:11:41.167Z,9.45
2023-01-22T11:14:36.138Z,14.60
2023-01-22T11:17:29.769Z,13.65
2023-01-22T11:20:18.147Z,12.57
2023-01-22T11:23:18.035Z,12.68
2023-01-22T11:25:58.816Z,11.45
2023-01-22T11:29:01.128Z,14.07
2023-01-22T11:32:11.236Z,17.20
2023-01-22T11:35:02.798Z,16.10
2023-01-22T11:37:57.573Z,14.43
2023-01-22T11:40:34.864Z,10.45
2023-01-22T11:43:22.896Z,16.15
2023-01-22T11:46:24.023Z,15.52
2023-01-22T11:49:16.780Z,12.95
2023-01-22T11:52:21.352Z,13.02
2023-01-22T11:55:15.295Z,13.02
2023-01-22T11:58:29.275Z,11.20
2023-01-22T12:01:41.381Z,12.30
2023-01-22T12:05:21.953Z,10.48
2023-01-22T12:07:57.721Z,10.85
2023-01-22T12:10:46.685Z,9.35
2023-01-22T12:13:49.264Z,8.77
2023-01-22T12:16:40.841Z,8.25
2023-01-22T12:19:13.604Z,11.95
2023-01-22T12:22:27.344Z,7.45
2023-01-22T12:25:16.489Z,11.98
2023-01-22T12:28:21.006Z,9.80
2023-01-22T12:31:01.346Z,9.00
2023-01-22T12:33:35.006Z,8.10
2023-01-22T12:36:04.832Z,7.55
2023-01-22T12:39:00.295Z,13.07
2023-01-22T12:42:02.752Z,8.35
2023-01-22T12:44:38.989Z,13.50
2023-01-22T12:47:09.253Z,8.55
2023-01-22T12:49:50.193Z,10.00
2023-01-22T12:52:39.463Z,7.85
2023-01-22T12:55:22.909Z,7.70
2023-01-22T13:00:34.072Z,10.13
2023-01-22T13:03:32.507Z,9.18
2023-01-22T13:06:03.306Z,12.95
2023-01-22T13:08:39.669Z,8.70
2023-01-22T13:11:29.758Z,9.25
2023-01-22T13:14:28.736Z,7.82
2023-01-22T13:17:00.445Z,9.75
2023-01-22T13:19:39.570Z,9.05
2023-01-22T13:22:08.425Z,9.45
2023-01-22T13:24:35.628Z,10.10
2023-01-22T13:27:04.756Z,8.02
2023-01-22T13:29:37.750Z,7.82
2023-01-22T13:32:23.105Z,11.70
2023-01-22T13:34:50.035Z,9.55
2023-01-22T13:37:27.819Z,12.07
2023-01-22T13:39:54.731Z,9.82
2023-01-22T13:42:22.019Z,9.65
2023-01-22T13:44:52.250Z,9.07
2023-01-22T13:47:34.684Z,9.35
2023-01-22T13:50:02.751Z,9.33
2023-01-22T13:52:31.629Z,8.45
2023-01-22T13:55:17.105Z,8.00
2023-01-22T13:57:52.893Z,11.10
2023-01-22T14:00:35.049Z,10.57
2023-01-22T14:03:02.917Z,7.53
2023-01-22T14:05:34.452Z,9.63
2023-01-22T14:08:11.609Z,12.48
2023-01-22T14:10:42.041Z,7.25
2023-01-22T14:13:13.660Z,8.65
2023-01-22T14:15:41.890Z,11.38
2023-01-22T14:18:18.749Z,8.68
2023-01-22T14:20:47.877Z,11.60
2023-01-22T14:23:16.301Z,8.80
2023-01-22T14:25:54.554Z,12.18
2023-01-22T14:28:24.005Z,9.63
2023-01-22T14:30:52.204Z,10.75
2023-01-22T14:33:26.473Z,13.18
2023-01-22T14:35:54.418Z,9.93
2023-01-22T14:38:23.686Z,9.57
2023-01-22T14:40:50.607Z,9.18
2023-01-22T14:43:18.108Z,10.93
2023-01-22T14:45:47.065Z,10.13
2023-01-22T14:48:18.203Z,8.10
2023-01-22T14:50:45.638Z,8.35
2023-01-22T14:53:14.607Z,7.18
2023-01-22T14:55:43.092Z,8.20
2023-01-22T14:58:10.542Z,8.93
2023-01-22T15:00:38.808Z,8.93
2023-01-22T15:03:06.481Z,8.68
2023-01-22T15:05:35.620Z,9.70
2023-01-22T15:08:03.039Z,10.57
2023-01-22T15:10:30.213Z,9.05
2023-01-22T15:12:57.112Z,12.93
2023-01-22T15:15:28.701Z,10.27
2023-01-22T15:17:57.630Z,11.07
2023-01-22T15:20:25.254Z,12.27
2023-01-22T15:22:52.337Z,11.35
2023-01-22T15:25:19.847Z,12.05
2023-01-22T15:27:46.939Z,14.25
2023-01-22T15:30:14.894Z,12.52
2023-01-22T15:32:42.227Z,15.23
2023-01-22T15:35:09.944Z,13.00
2023-01-22T15:37:37.436Z,11.15
2023-01-22T15:40:05.371Z,10.02
2023-01-22T15:42:35.793Z,12.00
2023-01-22T15:45:05.507Z,13.95
2023-01-22T15:47:33.062Z,13.38
2023-01-22T15:50:00.107Z,9.75
2023-01-22T15:52:27.126Z,10.55
2023-01-22T15:54:54.222Z,11.95
2023-01-22T15:57:21.380Z,12.32
2023-01-22T15:59:48.348Z,11.93
2023-01-22T16:02:15.410Z,11.00
2023-01-22T16:04:42.385Z,10.52
2023-01-22T16:07:09.333Z,11.05
2023-01-22T16:09:36.326Z,13.32
2023-01-22T16:12:03.897Z,11.15
2023-01-22T16:14:31.823Z,12.13
2023-01-22T16:16:59.209Z,13.93
2023-01-22T16:19:26.675Z,10.00
2023-01-22T16:21:54.406Z,14.55
2023-01-22T16:24:21.439Z,13.95
2023-01-22T16:26:48.388Z,11.23
2023-01-22T16:29:15.785Z,15.05
2023-01-22T16:31:42.732Z,16.08
2023-01-22T16:34:14.464Z,12.77
2023-01-22T16:36:42.791Z,12.38
2023-01-22T16:39:20.273Z,12.57
2023-01-22T16:41:49.526Z,12.65
2023-01-22T16:44:19.930Z,11.45
2023-01-22T16:46:51.266Z,13.10
2023-01-22T16:49:28.856Z,12.55
2023-01-22T16:52:12.947Z,13.23
2023-01-22T16:54:48.128Z,14.07
2023-01-22T16:57:16.039Z,14.65
2023-01-22T16:59:43.077Z,12.90
2023-01-22T17:02:15.860Z,12.60
2023-01-22T17:04:43.042Z,12.38
2023-01-22T17:07:27.374Z,11.95
2023-01-22T17:09:59.227Z,12.10
2023-01-22T17:12:27.012Z,13.05
2023-01-22T17:14:54.046Z,13.18
2023-01-22T17:17:21.173Z,14.23
2023-01-22T17:19:48.124Z,14.85
2023-01-22T17:22:15.240Z,12.95
2023-01-22T17:24:42.260Z,13.52
2023-01-22T17:27:09.307Z,10.27
2023-01-22T17:29:36.675Z,13.13
2023-01-22T17:32:04.403Z,15.55
2023-01-22T17:34:31.531Z,14.18
2023-01-22T17:36:58.482Z,13.45
2023-01-22T17:39:25.924Z,10.95
2023-01-22T17:41:53.300Z,14.25
2023-01-22T17:44:20.358Z,10.95
2023-01-22T17:46:49.517Z,15.27
2023-01-22T17:49:16.929Z,13.57
2023-01-22T17:51:44.142Z,14.88
2023-01-22T17:54:11.126Z,35.95
2023-01-22T17:56:45.619Z,81.18
2023-01-22T17:59:12.990Z,74.57
2023-01-22T18:01:45.492Z,24.65
2023-01-22T18:04:13.978Z,25.92
2023-01-22T18:06:43.178Z,26.65
2023-01-22T18:09:12.419Z,16.42
2023-01-22T18:11:41.116Z,18.35
2023-01-22T18:14:18.400Z,14.48
2023-01-22T18:16:45.893Z,16.05
2023-01-22T18:19:12.989Z,15.38
2023-01-22T18:21:40.501Z,16.20
2023-01-22T18:24:09.300Z,15.07
2023-01-22T18:26:39.356Z,12.05
2023-01-22T18:29:06.797Z,13.73
2023-01-22T18:31:34.708Z,11.85
2023-01-22T18:34:04.823Z,13.02
2023-01-22T18:36:35.825Z,13.20
2023-01-22T18:39:11.308Z,14.68
2023-01-22T18:41:40.167Z,15.27
2023-01-22T18:44:08.478Z,17.42
2023-01-22T18:46:45.308Z,15.57
2023-01-22T18:49:18.712Z,12.90
2023-01-22T18:51:46.230Z,13.73
2023-01-22T18:54:13.449Z,14.98
2023-01-22T18:56:40.750Z,15.10
2023-01-22T18:59:07.973Z,20.20
2023-01-22T19:01:38.160Z,15.65
2023-01-22T19:04:09.754Z,18.13
2023-01-22T19:06:38.736Z,14.77
2023-01-22T19:09:14.330Z,16.17
2023-01-22T19:11:46.991Z,19.63
2023-01-22T19:14:17.839Z,20.25
2023-01-22T19:16:52.692Z,20.67
2023-01-22T19:19:20.564Z,17.05
2023-01-22T19:21:53.326Z,16.38
2023-01-22T19:24:24.324Z,17.48
2023-01-22T19:26:52.351Z,21.75
2023-01-22T19:29:19.424Z,18.23
2023-01-22T19:31:51.611Z,21.33
2023-01-22T19:34:24.819Z,16.75
2023-01-22T19:37:00.385Z,25.23
2023-01-22T19:39:27.486Z,22.17
2023-01-22T19:41:55.451Z,19.75
2023-01-22T19:44:23.331Z,18.75
2023-01-22T19:46:50.428Z,21.95
2023-01-22T19:49:17.658Z,23.17
2023-01-22T19:51:45.015Z,21.63
2023-01-22T19:54:12.849Z,26.42
2023-01-22T19:56:45.531Z,28.17
2023-01-22T19:59:18.131Z,16.38
2023-01-22T20:01:46.590Z,20.83
2023-01-22T20:04:25.148Z,26.17
2023-01-22T20:06:58.244Z,22.33
2023-01-22T20:09:25.245Z,19.48
2023-01-22T20:11:54.831Z,19.80
2023-01-22T20:14:29.937Z,17.88
2023-01-22T20:16:58.140Z,27.33
2023-01-22T20:19:25.172Z,23.25
2023-01-22T20:21:52.200Z,22.65
2023-01-22T20:24:19.195Z,20.55
2023-01-22T20:26:46.320Z,24.45
2023-01-22T20:29:13.506Z,19.45
2023-01-22T20:31:40.494Z,21.13
2023-01-22T20:34:07.813Z,21.30
2023-01-22T20:36:35.592Z,24.17
2023-01-22T20:39:03.541Z,25.10
2023-01-22T20:41:32.376Z,24.50
2023-01-22T20:43:59.334Z,22.13
2023-01-22T20:46:27.396Z,21.42
2023-01-22T20:48:58.317Z,19.50
2023-01-22T20:51:28.824Z,19.95
2023-01-22T20:53:58.195Z,20.30
2023-01-22T20:56:32.867Z,16.48
2023-01-22T20:59:04.762Z,19.85
2023-01-22T21:01:32.590Z,17.40
2023-01-22T21:04:01.211Z,16.42
2023-01-22T21:06:31.596Z,20.33
2023-01-22T21:09:01.862Z,14.95
2023-01-22T21:11:31.716Z,21.00
2023-01-22T21:14:00.590Z,19.50
2023-01-22T21:16:31.523Z,15.73
2023-01-22T21:19:09.636Z,15.80
2023-01-22T21:21:36.675Z,17.52
2023-01-22T21:24:04.483Z,14.07
2023-01-22T21:26:33.121Z,21.63
2023-01-22T21:29:09.026Z,21.10
2023-01-22T21:31:37.654Z,15.05
2023-01-22T21:34:06.364Z,20.48
2023-01-22T21:36:44.187Z,17.02
2023-01-22T21:39:14.839Z,16.42
2023-01-22T21:41:43.473Z,18.38
2023-01-22T21:44:34.810Z,20.48
2023-01-22T21:47:03.161Z,19.33
2023-01-22T21:49:31.017Z,17.63
2023-01-22T21:52:01.450Z,14.93
2023-01-22T21:54:34.416Z,12.73
2023-01-22T21:57:01.983Z,14.52
2023-01-22T21:59:29.498Z,14.15
2023-01-22T22:01:56.930Z,14.07
2023-01-22T22:04:26.704Z,16.42
2023-01-22T22:06:55.003Z,16.52
2023-01-22T22:09:26.020Z,14.27
2023-01-22T22:11:57.608Z,15.57
2023-01-22T22:14:25.329Z,15.45
2023-01-22T22:16:53.703Z,12.30
2023-01-22T22:19:24.533Z,13.68
2023-01-22T22:21:52.040Z,11.90
2023-01-22T22:24:20.303Z,14.38
2023-01-22T22:26:47.472Z,16.00
2023-01-22T22:29:14.703Z,18.35
2023-01-22T22:31:41.720Z,13.35
2023-01-22T22:34:09.154Z,15.30
2023-01-22T22:36:36.236Z,13.90
2023-01-22T22:39:06.464Z,12.95
2023-01-22T22:41:36.303Z,14.75
2023-01-22T22:44:04.228Z,13.98
2023-01-22T22:46:36.745Z,14.40
2023-01-22T22:49:05.176Z,13.20
2023-01-22T22:51:36.672Z,12.38
2023-01-22T22:54:08.357Z,14.40
2023-01-22T22:56:35.484Z,14.57
2023-01-22T22:59:04.142Z,13.57
2023-01-22T23:01:33.324Z,15.88
2023-01-22T23:04:01.655Z,15.05
2023-01-22T23:06:32.527Z,18.20
2023-01-22T23:09:00.837Z,20.35
2023-01-22T23:11:33.870Z,18.17
2023-01-22T23:14:03.440Z,17.88
2023-01-22T23:16:39.923Z,15.27
2023-01-22T23:19:13.461Z,15.45
2023-01-22T23:21:41.866Z,18.33
2023-01-22T23:24:12.076Z,17.67
2023-01-22T23:26:41.486Z,17.48
2023-01-22T23:29:12.187Z,15.23
2023-01-22T23:31:40.589Z,16.38
2023-01-22T23:34:12.321Z,16.55
2023-01-22T23:36:43.400Z,16.35
2023-01-22T23:39:12.702Z,16.88
2023-01-22T23:41:39.770Z,16.92
2023-01-22T23:44:06.778Z,13.38
2023-01-22T23:46:36.527Z,14.05
2023-01-22T23:49:05.504Z,15.00
2023-01-22T23:51:32.700Z,16.42
2023-01-22T23:53:59.935Z,20.52
2023-01-22T23:56:32.171Z,12.27
2023-01-22T23:58:59.926Z,16.27
